sensor_id;sensor_type;location;lat;lon;timestamp;pressure;altitude;pressure_sealevel;temperature;humidity
65872;BME280;52653;50.080;21.992;2023-06-14T00:02:07;99006.18;;;12.42;98.06
65872;BME280;52653;50.080;21.992;2023-06-14T00:04:40;99008.10;;;12.42;97.96
65872;BME280;52653;50.080;21.992;2023-06-14T00:07:13;99005.83;;;12.41;97.85
65872;BME280;52653;50.080;21.992;2023-06-14T00:09:48;99001.98;;;12.41;97.78
65872;BME280;52653;50.080;21.992;2023-06-14T00:12:22;99001.11;;;12.40;97.78
65872;BME280;52653;50.080;21.992;2023-06-14T00:14:55;99001.47;;;12.40;97.80
65872;BME280;52653;50.080;21.992;2023-06-14T00:17:28;99000.58;;;12.40;97.84
65872;BME280;52653;50.080;21.992;2023-06-14T00:20:04;98999.35;;;12.41;97.73
65872;BME280;52653;50.080;21.992;2023-06-14T00:22:40;98999.17;;;12.40;97.75
65872;BME280;52653;50.080;21.992;2023-06-14T00:25:13;98996.05;;;12.38;97.63
65872;BME280;52653;50.080;21.992;2023-06-14T00:27:59;98997.45;;;12.38;97.67
65872;BME280;52653;50.080;21.992;2023-06-14T00:30:43;99003.59;;;12.39;97.73
65872;BME280;52653;50.080;21.992;2023-06-14T00:33:18;98995.64;;;12.40;97.82
65872;BME280;52653;50.080;21.992;2023-06-14T00:35:51;98993.36;;;12.41;97.83
65872;BME280;52653;50.080;21.992;2023-06-14T00:38:25;98992.16;;;12.39;97.59
65872;BME280;52653;50.080;21.992;2023-06-14T00:40:58;98994.45;;;12.39;97.52
65872;BME280;52653;50.080;21.992;2023-06-14T00:43:30;98986.56;;;12.37;97.55
65872;BME280;52653;50.080;21.992;2023-06-14T00:46:03;98990.11;;;12.36;97.67
65872;BME280;52653;50.080;21.992;2023-06-14T00:48:37;98993.12;;;12.35;97.58
65872;BME280;52653;50.080;21.992;2023-06-14T00:51:11;98997.52;;;12.35;97.69
65872;BME280;52653;50.080;21.992;2023-06-14T00:53:44;98989.24;;;12.35;97.79
65872;BME280;52653;50.080;21.992;2023-06-14T00:56:21;98985.73;;;12.35;97.65
65872;BME280;52653;50.080;21.992;2023-06-14T00:58:54;98982.90;;;12.36;97.77
65872;BME280;52653;50.080;21.992;2023-06-14T01:01:27;98978.88;;;12.35;97.59
65872;BME280;52653;50.080;21.992;2023-06-14T01:04:04;98977.13;;;12.35;97.76
65872;BME280;52653;50.080;21.992;2023-06-14T01:09:41;98965.91;;;12.31;97.75
65872;BME280;52653;50.080;21.992;2023-06-14T01:12:24;98968.38;;;12.31;97.97
65872;BME280;52653;50.080;21.992;2023-06-14T01:15:02;98965.07;;;12.29;97.94
65872;BME280;52653;50.080;21.992;2023-06-14T01:17:36;98962.83;;;12.27;97.97
65872;BME280;52653;50.080;21.992;2023-06-14T01:20:15;98960.21;;;12.26;98.15
65872;BME280;52653;50.080;21.992;2023-06-14T01:22:54;98959.21;;;12.24;98.23
65872;BME280;52653;50.080;21.992;2023-06-14T01:25:27;98954.30;;;12.23;98.28
65872;BME280;52653;50.080;21.992;2023-06-14T01:28:03;98958.02;;;12.22;98.34
65872;BME280;52653;50.080;21.992;2023-06-14T01:30:43;98956.30;;;12.20;98.39
65872;BME280;52653;50.080;21.992;2023-06-14T01:33:20;98954.91;;;12.18;98.34
65872;BME280;52653;50.080;21.992;2023-06-14T01:35:54;98956.36;;;12.15;98.28
65872;BME280;52653;50.080;21.992;2023-06-14T01:38:28;98960.42;;;12.15;98.27
65872;BME280;52653;50.080;21.992;2023-06-14T01:41:03;98955.67;;;12.15;98.49
65872;BME280;52653;50.080;21.992;2023-06-14T01:43:41;98953.77;;;12.14;98.28
65872;BME280;52653;50.080;21.992;2023-06-14T01:46:15;98952.58;;;12.12;98.25
65872;BME280;52653;50.080;21.992;2023-06-14T01:48:51;98952.61;;;12.10;98.42
65872;BME280;52653;50.080;21.992;2023-06-14T01:51:23;98956.50;;;12.09;98.34
65872;BME280;52653;50.080;21.992;2023-06-14T01:53:56;98953.88;;;12.08;98.70
65872;BME280;52653;50.080;21.992;2023-06-14T01:56:29;98944.92;;;12.06;98.66
65872;BME280;52653;50.080;21.992;2023-06-14T01:59:02;98943.71;;;12.05;98.78
65872;BME280;52653;50.080;21.992;2023-06-14T02:01:36;98940.58;;;12.04;98.83
65872;BME280;52653;50.080;21.992;2023-06-14T02:04:09;98947.09;;;12.02;98.94
65872;BME280;52653;50.080;21.992;2023-06-14T02:06:42;98946.06;;;12.02;99.00
65872;BME280;52653;50.080;21.992;2023-06-14T02:09:15;98940.98;;;12.00;98.96
65872;BME280;52653;50.080;21.992;2023-06-14T02:11:48;98939.27;;;11.99;99.13
65872;BME280;52653;50.080;21.992;2023-06-14T02:14:21;98931.40;;;11.97;99.29
65872;BME280;52653;50.080;21.992;2023-06-14T02:16:54;98925.46;;;11.95;99.37
65872;BME280;52653;50.080;21.992;2023-06-14T02:19:28;98928.62;;;11.94;99.52
65872;BME280;52653;50.080;21.992;2023-06-14T02:22:01;98931.98;;;11.93;99.49
65872;BME280;52653;50.080;21.992;2023-06-14T02:24:34;98932.52;;;11.92;99.72
65872;BME280;52653;50.080;21.992;2023-06-14T02:27:11;98934.45;;;11.92;99.62
65872;BME280;52653;50.080;21.992;2023-06-14T02:29:44;98937.96;;;11.92;99.65
65872;BME280;52653;50.080;21.992;2023-06-14T02:32:19;98935.48;;;11.93;99.82
65872;BME280;52653;50.080;21.992;2023-06-14T02:34:53;98937.59;;;11.93;99.85
65872;BME280;52653;50.080;21.992;2023-06-14T02:37:25;98941.11;;;11.93;99.91
65872;BME280;52653;50.080;21.992;2023-06-14T02:39:58;98940.92;;;11.95;99.98
65872;BME280;52653;50.080;21.992;2023-06-14T02:42:31;98942.83;;;11.96;99.93
65872;BME280;52653;50.080;21.992;2023-06-14T02:45:05;98947.20;;;11.98;99.96
65872;BME280;52653;50.080;21.992;2023-06-14T02:47:38;98949.09;;;11.99;99.91
65872;BME280;52653;50.080;21.992;2023-06-14T02:50:11;98941.33;;;12.02;99.91
65872;BME280;52653;50.080;21.992;2023-06-14T02:52:45;98941.44;;;12.04;99.88
65872;BME280;52653;50.080;21.992;2023-06-14T02:55:18;98942.63;;;12.07;99.89
65872;BME280;52653;50.080;21.992;2023-06-14T02:57:51;98944.00;;;12.10;99.74
65872;BME280;52653;50.080;21.992;2023-06-14T03:00:25;98942.90;;;12.12;99.67
65872;BME280;52653;50.080;21.992;2023-06-14T03:02:58;98941.60;;;12.15;99.65
65872;BME280;52653;50.080;21.992;2023-06-14T03:05:33;98945.39;;;12.20;99.46
65872;BME280;52653;50.080;21.992;2023-06-14T03:08:06;98949.02;;;12.23;99.32
65872;BME280;52653;50.080;21.992;2023-06-14T03:10:40;98950.92;;;12.25;99.19
65872;BME280;52653;50.080;21.992;2023-06-14T03:13:17;98956.52;;;12.26;98.93
65872;BME280;52653;50.080;21.992;2023-06-14T03:15:52;98956.85;;;12.27;98.87
65872;BME280;52653;50.080;21.992;2023-06-14T03:18:27;98959.09;;;12.29;98.86
65872;BME280;52653;50.080;21.992;2023-06-14T03:21:01;98957.27;;;12.33;98.91
65872;BME280;52653;50.080;21.992;2023-06-14T03:23:35;98960.88;;;12.38;98.80
65872;BME280;52653;50.080;21.992;2023-06-14T03:26:08;98960.95;;;12.44;98.83
65872;BME280;52653;50.080;21.992;2023-06-14T03:28:41;98960.95;;;12.52;98.69
65872;BME280;52653;50.080;21.992;2023-06-14T03:31:14;98965.52;;;12.62;98.45
65872;BME280;52653;50.080;21.992;2023-06-14T03:33:47;98965.00;;;12.70;97.98
65872;BME280;52653;50.080;21.992;2023-06-14T03:36:20;98964.02;;;12.75;97.72
65872;BME280;52653;50.080;21.992;2023-06-14T03:38:53;98968.27;;;12.82;97.67
65872;BME280;52653;50.080;21.992;2023-06-14T03:41:27;98968.63;;;12.90;97.57
65872;BME280;52653;50.080;21.992;2023-06-14T03:44:03;98967.99;;;12.95;97.18
65872;BME280;52653;50.080;21.992;2023-06-14T03:46:38;98967.55;;;13.00;97.01
65872;BME280;52653;50.080;21.992;2023-06-14T03:49:11;98968.20;;;13.02;96.55
65872;BME280;52653;50.080;21.992;2023-06-14T03:51:44;98964.52;;;13.02;96.11
65872;BME280;52653;50.080;21.992;2023-06-14T03:54:23;98968.92;;;13.02;95.70
65872;BME280;52653;50.080;21.992;2023-06-14T03:56:58;98968.41;;;13.01;95.72
65872;BME280;52653;50.080;21.992;2023-06-14T03:59:31;98965.21;;;13.02;95.74
65872;BME280;52653;50.080;21.992;2023-06-14T04:02:04;98968.88;;;13.03;95.45
65872;BME280;52653;50.080;21.992;2023-06-14T04:04:37;98965.80;;;13.07;95.61
65872;BME280;52653;50.080;21.992;2023-06-14T04:07:10;98969.18;;;13.14;95.69
65872;BME280;52653;50.080;21.992;2023-06-14T04:09:44;98969.55;;;13.22;95.80
65872;BME280;52653;50.080;21.992;2023-06-14T04:12:17;98974.27;;;13.32;95.66
65872;BME280;52653;50.080;21.992;2023-06-14T04:14:53;98976.73;;;13.39;95.41
65872;BME280;52653;50.080;21.992;2023-06-14T04:17:36;98982.06;;;13.45;95.09
65872;BME280;52653;50.080;21.992;2023-06-14T04:20:29;98987.59;;;13.50;94.36
65872;BME280;52653;50.080;21.992;2023-06-14T04:23:22;98996.67;;;13.53;94.20
65872;BME280;52653;50.080;21.992;2023-06-14T04:26:05;98997.27;;;13.58;94.28
65872;BME280;52653;50.080;21.992;2023-06-14T04:28:43;98999.62;;;13.64;94.29
65872;BME280;52653;50.080;21.992;2023-06-14T04:31:37;99002.08;;;13.71;93.92
65872;BME280;52653;50.080;21.992;2023-06-14T04:34:30;99000.10;;;13.80;93.68
65872;BME280;52653;50.080;21.992;2023-06-14T04:37:09;98999.84;;;13.90;93.65
65872;BME280;52653;50.080;21.992;2023-06-14T04:39:54;98997.48;;;14.01;93.61
65872;BME280;52653;50.080;21.992;2023-06-14T04:42:48;98998.78;;;14.12;93.49
65872;BME280;52653;50.080;21.992;2023-06-14T04:45:30;99001.23;;;14.20;92.64
65872;BME280;52653;50.080;21.992;2023-06-14T04:48:23;98998.34;;;14.29;92.38
65872;BME280;52653;50.080;21.992;2023-06-14T04:51:10;98998.16;;;14.36;91.49
65872;BME280;52653;50.080;21.992;2023-06-14T04:53:57;98998.56;;;14.41;90.65
65872;BME280;52653;50.080;21.992;2023-06-14T04:56:42;98997.06;;;14.44;90.35
65872;BME280;52653;50.080;21.992;2023-06-14T04:59:29;98995.11;;;14.53;90.03
65872;BME280;52653;50.080;21.992;2023-06-14T05:02:25;98998.45;;;14.59;89.45
65872;BME280;52653;50.080;21.992;2023-06-14T05:05:19;98995.99;;;14.65;89.12
65872;BME280;52653;50.080;21.992;2023-06-14T05:08:05;98996.89;;;14.70;88.82
65872;BME280;52653;50.080;21.992;2023-06-14T05:10:59;98999.18;;;14.78;88.78
65872;BME280;52653;50.080;21.992;2023-06-14T05:13:52;99003.00;;;14.86;88.46
65872;BME280;52653;50.080;21.992;2023-06-14T05:16:42;99004.32;;;14.90;87.80
65872;BME280;52653;50.080;21.992;2023-06-14T05:19:37;99001.73;;;14.87;87.17
65872;BME280;52653;50.080;21.992;2023-06-14T05:22:31;99001.75;;;14.87;87.13
65872;BME280;52653;50.080;21.992;2023-06-14T05:25:24;98999.98;;;14.92;87.30
65872;BME280;52653;50.080;21.992;2023-06-14T05:28:37;98998.21;;;14.99;86.88
65872;BME280;52653;50.080;21.992;2023-06-14T05:31:30;98996.90;;;15.02;86.33
65872;BME280;52653;50.080;21.992;2023-06-14T05:34:24;99003.07;;;15.02;86.69
65872;BME280;52653;50.080;21.992;2023-06-14T05:37:17;99000.11;;;15.06;86.95
65872;BME280;52653;50.080;21.992;2023-06-14T05:40:00;98996.31;;;15.09;86.79
65872;BME280;52653;50.080;21.992;2023-06-14T05:42:53;99000.33;;;15.11;86.14
65872;BME280;52653;50.080;21.992;2023-06-14T05:45:39;98999.46;;;15.04;85.77
65872;BME280;52653;50.080;21.992;2023-06-14T05:48:33;99004.45;;;14.97;85.97
65872;BME280;52653;50.080;21.992;2023-06-14T05:51:18;99005.69;;;14.91;86.09
65872;BME280;52653;50.080;21.992;2023-06-14T05:54:04;99008.36;;;14.84;85.98
65872;BME280;52653;50.080;21.992;2023-06-14T05:56:51;99011.18;;;14.78;86.22
65872;BME280;52653;50.080;21.992;2023-06-14T05:59:34;99014.71;;;14.78;86.38
65872;BME280;52653;50.080;21.992;2023-06-14T06:02:27;99012.07;;;14.83;86.69
65872;BME280;52653;50.080;21.992;2023-06-14T06:05:22;99013.76;;;14.93;86.64
65872;BME280;52653;50.080;21.992;2023-06-14T06:08:15;99018.80;;;15.02;86.46
65872;BME280;52653;50.080;21.992;2023-06-14T06:11:01;99019.64;;;15.09;86.45
65872;BME280;52653;50.080;21.992;2023-06-14T06:13:43;99024.45;;;15.19;86.57
65872;BME280;52653;50.080;21.992;2023-06-14T06:16:16;99023.94;;;15.25;86.22
65872;BME280;52653;50.080;21.992;2023-06-14T06:19:09;99028.09;;;15.34;86.26
65872;BME280;52653;50.080;21.992;2023-06-14T06:21:45;99028.03;;;15.42;85.63
65872;BME280;52653;50.080;21.992;2023-06-14T06:24:20;99028.49;;;15.44;84.82
65872;BME280;52653;50.080;21.992;2023-06-14T06:27:12;99032.47;;;15.53;84.82
65872;BME280;52653;50.080;21.992;2023-06-14T06:29:57;99033.26;;;15.62;84.33
65872;BME280;52653;50.080;21.992;2023-06-14T06:32:50;99033.30;;;15.79;83.89
65872;BME280;52653;50.080;21.992;2023-06-14T06:35:43;99032.80;;;15.94;83.46
65872;BME280;52653;50.080;21.992;2023-06-14T06:38:36;99033.01;;;16.10;83.38
65872;BME280;52653;50.080;21.992;2023-06-14T06:41:29;99033.62;;;16.33;83.57
65872;BME280;52653;50.080;21.992;2023-06-14T06:44:23;99030.89;;;16.61;82.44
65872;BME280;52653;50.080;21.992;2023-06-14T06:46:59;99032.14;;;16.77;81.99
65872;BME280;52653;50.080;21.992;2023-06-14T06:49:41;99030.53;;;16.87;81.01
65872;BME280;52653;50.080;21.992;2023-06-14T06:52:17;99033.39;;;16.96;80.37
65872;BME280;52653;50.080;21.992;2023-06-14T06:55:01;99035.08;;;17.03;78.93
65872;BME280;52653;50.080;21.992;2023-06-14T06:57:54;99034.23;;;17.17;79.07
65872;BME280;52653;50.080;21.992;2023-06-14T07:00:50;99033.41;;;17.24;78.34
65872;BME280;52653;50.080;21.992;2023-06-14T07:03:26;99034.71;;;17.37;78.39
65872;BME280;52653;50.080;21.992;2023-06-14T07:06:01;99037.40;;;17.45;77.50
65872;BME280;52653;50.080;21.992;2023-06-14T07:08:38;99035.17;;;17.43;77.21
65872;BME280;52653;50.080;21.992;2023-06-14T07:11:13;99038.45;;;17.32;77.49
65872;BME280;52653;50.080;21.992;2023-06-14T07:13:46;99034.41;;;17.21;77.40
65872;BME280;52653;50.080;21.992;2023-06-14T07:16:21;99037.77;;;17.17;77.88
65872;BME280;52653;50.080;21.992;2023-06-14T07:18:57;99042.40;;;17.17;77.36
65872;BME280;52653;50.080;21.992;2023-06-14T07:21:34;99037.31;;;17.05;76.82
65872;BME280;52653;50.080;21.992;2023-06-14T07:24:08;99042.02;;;17.07;77.32
65872;BME280;52653;50.080;21.992;2023-06-14T07:26:41;99041.77;;;17.19;77.68
65872;BME280;52653;50.080;21.992;2023-06-14T07:29:17;99038.65;;;17.26;77.44
65872;BME280;52653;50.080;21.992;2023-06-14T07:31:51;99043.70;;;17.29;77.15
65872;BME280;52653;50.080;21.992;2023-06-14T07:34:24;99049.58;;;17.28;76.85
65872;BME280;52653;50.080;21.992;2023-06-14T07:37:10;99053.91;;;17.26;77.87
65872;BME280;52653;50.080;21.992;2023-06-14T07:39:53;99057.70;;;17.24;77.87
65872;BME280;52653;50.080;21.992;2023-06-14T07:42:29;99059.52;;;17.23;78.03
65872;BME280;52653;50.080;21.992;2023-06-14T07:45:21;99063.07;;;17.23;77.32
65872;BME280;52653;50.080;21.992;2023-06-14T07:48:08;99063.70;;;17.20;76.80
65872;BME280;52653;50.080;21.992;2023-06-14T07:51:02;99064.05;;;17.16;77.18
65872;BME280;52653;50.080;21.992;2023-06-14T07:53:53;99066.01;;;17.20;77.82
65872;BME280;52653;50.080;21.992;2023-06-14T07:56:37;99063.23;;;17.28;78.29
65872;BME280;52653;50.080;21.992;2023-06-14T07:59:31;99063.02;;;17.38;78.04
65872;BME280;52653;50.080;21.992;2023-06-14T08:02:06;99062.04;;;17.50;77.98
65872;BME280;52653;50.080;21.992;2023-06-14T08:04:40;99066.23;;;17.56;77.07
65872;BME280;52653;50.080;21.992;2023-06-14T08:07:23;99062.64;;;17.53;76.60
65872;BME280;52653;50.080;21.992;2023-06-14T08:10:03;99058.20;;;17.53;76.61
65872;BME280;52653;50.080;21.992;2023-06-14T08:12:56;99056.73;;;17.64;77.53
65872;BME280;52653;50.080;21.992;2023-06-14T08:15:47;99056.91;;;17.74;77.28
65872;BME280;52653;50.080;21.992;2023-06-14T08:18:33;99058.62;;;17.84;77.40
65872;BME280;52653;50.080;21.992;2023-06-14T08:21:26;99056.41;;;17.86;76.60
65872;BME280;52653;50.080;21.992;2023-06-14T08:24:22;99056.66;;;17.88;77.13
65872;BME280;52653;50.080;21.992;2023-06-14T08:27:15;99052.98;;;17.92;77.68
65872;BME280;52653;50.080;21.992;2023-06-14T08:30:10;99055.21;;;17.94;77.21
65872;BME280;52653;50.080;21.992;2023-06-14T08:32:45;99052.86;;;18.00;77.15
65872;BME280;52653;50.080;21.992;2023-06-14T08:35:26;99048.89;;;18.14;77.07
65872;BME280;52653;50.080;21.992;2023-06-14T08:38:11;99048.70;;;18.22;76.48
65872;BME280;52653;50.080;21.992;2023-06-14T08:40:46;99049.06;;;18.27;76.96
65872;BME280;52653;50.080;21.992;2023-06-14T08:43:40;99050.73;;;18.30;77.18
65872;BME280;52653;50.080;21.992;2023-06-14T08:46:26;99052.55;;;18.29;76.90
65872;BME280;52653;50.080;21.992;2023-06-14T08:49:20;99052.95;;;18.23;76.51
65872;BME280;52653;50.080;21.992;2023-06-14T08:52:01;99054.09;;;18.12;76.93
65872;BME280;52653;50.080;21.992;2023-06-14T08:54:55;99059.48;;;18.02;77.08
65872;BME280;52653;50.080;21.992;2023-06-14T08:57:49;99060.49;;;17.90;76.77
65872;BME280;52653;50.080;21.992;2023-06-14T09:00:42;99061.28;;;17.84;77.28
65872;BME280;52653;50.080;21.992;2023-06-14T09:03:36;99061.85;;;17.92;77.83
65872;BME280;52653;50.080;21.992;2023-06-14T09:06:32;99057.41;;;18.05;77.85
65872;BME280;52653;50.080;21.992;2023-06-14T09:09:10;99062.09;;;18.21;77.63
65872;BME280;52653;50.080;21.992;2023-06-14T09:12:04;99060.93;;;18.28;76.40
65872;BME280;52653;50.080;21.992;2023-06-14T09:14:58;99063.88;;;18.30;76.35
65872;BME280;52653;50.080;21.992;2023-06-14T09:17:35;99062.23;;;18.26;76.05
65872;BME280;52653;50.080;21.992;2023-06-14T09:20:30;99065.45;;;18.17;76.10
65872;BME280;52653;50.080;21.992;2023-06-14T09:23:23;99061.64;;;18.14;76.70
65872;BME280;52653;50.080;21.992;2023-06-14T09:26:11;99062.27;;;18.16;76.19
65872;BME280;52653;50.080;21.992;2023-06-14T09:29:06;99060.52;;;18.30;76.20
65872;BME280;52653;50.080;21.992;2023-06-14T09:31:59;99061.30;;;18.66;75.76
65872;BME280;52653;50.080;21.992;2023-06-14T09:34:52;99059.89;;;19.10;75.20
65872;BME280;52653;50.080;21.992;2023-06-14T09:37:45;99055.81;;;19.61;72.76
65872;BME280;52653;50.080;21.992;2023-06-14T09:40:38;99052.63;;;19.94;71.11
65872;BME280;52653;50.080;21.992;2023-06-14T09:43:32;99049.61;;;20.34;70.41
65872;BME280;52653;50.080;21.992;2023-06-14T09:46:25;99050.27;;;20.67;68.18
65872;BME280;52653;50.080;21.992;2023-06-14T09:49:11;99048.50;;;20.91;67.14
65872;BME280;52653;50.080;21.992;2023-06-14T09:52:05;99050.52;;;21.16;66.00
65872;BME280;52653;50.080;21.992;2023-06-14T09:54:42;99044.30;;;21.30;65.49
65872;BME280;52653;50.080;21.992;2023-06-14T09:57:28;99044.90;;;21.45;64.81
65872;BME280;52653;50.080;21.992;2023-06-14T10:00:14;99048.13;;;21.48;64.69
65872;BME280;52653;50.080;21.992;2023-06-14T10:03:03;99051.34;;;21.35;64.39
65872;BME280;52653;50.080;21.992;2023-06-14T10:06:00;99053.22;;;21.13;65.55
65872;BME280;52653;50.080;21.992;2023-06-14T10:08:41;99055.46;;;21.11;65.39
65872;BME280;52653;50.080;21.992;2023-06-14T10:11:14;99045.28;;;21.18;64.51
65872;BME280;52653;50.080;21.992;2023-06-14T10:14:08;99041.60;;;21.50;63.86
65872;BME280;52653;50.080;21.992;2023-06-14T10:16:49;99043.67;;;22.02;64.20
65872;BME280;52653;50.080;21.992;2023-06-14T10:19:58;99040.25;;;22.43;63.02
65872;BME280;52653;50.080;21.992;2023-06-14T10:22:44;99039.20;;;22.66;62.04
65872;BME280;52653;50.080;21.992;2023-06-14T10:25:30;99038.16;;;22.84;60.82
65872;BME280;52653;50.080;21.992;2023-06-14T10:28:21;99039.41;;;23.05;59.14
65872;BME280;52653;50.080;21.992;2023-06-14T10:31:07;99038.55;;;23.13;58.26
65872;BME280;52653;50.080;21.992;2023-06-14T10:33:49;99038.37;;;23.13;58.30
65872;BME280;52653;50.080;21.992;2023-06-14T10:36:29;99038.56;;;23.10;58.12
65872;BME280;52653;50.080;21.992;2023-06-14T10:39:08;99035.42;;;23.17;57.68
65872;BME280;52653;50.080;21.992;2023-06-14T10:42:03;99036.80;;;23.15;58.35
65872;BME280;52653;50.080;21.992;2023-06-14T10:44:47;99038.66;;;22.85;57.92
65872;BME280;52653;50.080;21.992;2023-06-14T10:47:27;99038.36;;;22.57;59.35
65872;BME280;52653;50.080;21.992;2023-06-14T10:50:06;99038.77;;;22.38;60.00
65872;BME280;52653;50.080;21.992;2023-06-14T10:52:48;99040.38;;;22.22;60.02
65872;BME280;52653;50.080;21.992;2023-06-14T10:55:39;99041.26;;;22.10;59.81
65872;BME280;52653;50.080;21.992;2023-06-14T10:58:12;99037.47;;;22.01;60.30
65872;BME280;52653;50.080;21.992;2023-06-14T11:00:47;99038.94;;;21.91;60.77
65872;BME280;52653;50.080;21.992;2023-06-14T11:03:46;99041.39;;;21.73;61.06
65872;BME280;52653;50.080;21.992;2023-06-14T11:06:24;99039.25;;;21.34;60.95
65872;BME280;52653;50.080;21.992;2023-06-14T11:09:24;99044.27;;;21.00;61.81
65872;BME280;52653;50.080;21.992;2023-06-14T11:12:10;99044.55;;;20.71;63.04
65872;BME280;52653;50.080;21.992;2023-06-14T11:14:48;99041.35;;;20.56;64.10
65872;BME280;52653;50.080;21.992;2023-06-14T11:17:21;99037.83;;;20.66;64.50
65872;BME280;52653;50.080;21.992;2023-06-14T11:20:08;99038.99;;;20.78;62.87
65872;BME280;52653;50.080;21.992;2023-06-14T11:22:42;99038.56;;;21.00;62.84
65872;BME280;52653;50.080;21.992;2023-06-14T11:25:17;99035.73;;;21.36;63.14
65872;BME280;52653;50.080;21.992;2023-06-14T11:27:59;99032.73;;;21.74;62.45
65872;BME280;52653;50.080;21.992;2023-06-14T11:30:32;99030.73;;;22.03;61.47
65872;BME280;52653;50.080;21.992;2023-06-14T11:33:10;99031.74;;;22.33;60.39
65872;BME280;52653;50.080;21.992;2023-06-14T11:35:43;99026.67;;;22.55;59.14
65872;BME280;52653;50.080;21.992;2023-06-14T11:38:17;99022.94;;;22.81;57.67
65872;BME280;52653;50.080;21.992;2023-06-14T11:40:49;99021.67;;;23.11;56.98
65872;BME280;52653;50.080;21.992;2023-06-14T11:43:22;99021.58;;;23.32;56.08
65872;BME280;52653;50.080;21.992;2023-06-14T11:45:55;99024.63;;;23.41;55.46
65872;BME280;52653;50.080;21.992;2023-06-14T11:48:40;99026.10;;;23.49;55.36
65872;BME280;52653;50.080;21.992;2023-06-14T11:51:13;99026.42;;;23.61;55.44
65872;BME280;52653;50.080;21.992;2023-06-14T11:53:46;99025.91;;;23.74;54.99
65872;BME280;52653;50.080;21.992;2023-06-14T11:56:19;99022.16;;;23.93;55.07
65872;BME280;52653;50.080;21.992;2023-06-14T11:58:54;99023.59;;;24.15;54.20
65872;BME280;52653;50.080;21.992;2023-06-14T12:01:29;99023.97;;;24.37;53.75
65872;BME280;52653;50.080;21.992;2023-06-14T12:04:02;99019.48;;;24.58;52.80
65872;BME280;52653;50.080;21.992;2023-06-14T12:06:35;99024.41;;;24.78;53.09
65872;BME280;52653;50.080;21.992;2023-06-14T12:09:13;99023.48;;;24.84;51.43
65872;BME280;52653;50.080;21.992;2023-06-14T12:11:49;99025.03;;;24.64;51.12
65872;BME280;52653;50.080;21.992;2023-06-14T12:14:22;99024.34;;;24.40;51.90
65872;BME280;52653;50.080;21.992;2023-06-14T12:17:10;99021.71;;;24.19;52.50
65872;BME280;52653;50.080;21.992;2023-06-14T12:19:48;99019.16;;;24.04;53.34
65872;BME280;52653;50.080;21.992;2023-06-14T12:22:21;99021.64;;;23.93;53.35
65872;BME280;52653;50.080;21.992;2023-06-14T12:24:54;99021.23;;;23.75;52.99
65872;BME280;52653;50.080;21.992;2023-06-14T12:27:27;99015.79;;;23.62;54.13
65872;BME280;52653;50.080;21.992;2023-06-14T12:30:12;99008.68;;;23.56;54.50
65872;BME280;52653;50.080;21.992;2023-06-14T12:32:45;99003.29;;;23.47;55.54
65872;BME280;52653;50.080;21.992;2023-06-14T12:35:18;98999.11;;;23.31;56.52
65872;BME280;52653;50.080;21.992;2023-06-14T12:37:51;99001.96;;;23.26;57.57
65872;BME280;52653;50.080;21.992;2023-06-14T12:40:26;99003.34;;;23.21;57.97
65872;BME280;52653;50.080;21.992;2023-06-14T12:43:01;99005.77;;;23.28;57.99
65872;BME280;52653;50.080;21.992;2023-06-14T12:45:35;99006.96;;;23.43;57.22
65872;BME280;52653;50.080;21.992;2023-06-14T12:48:08;99005.00;;;23.51;55.51
65872;BME280;52653;50.080;21.992;2023-06-14T12:50:41;99004.84;;;23.63;55.68
65872;BME280;52653;50.080;21.992;2023-06-14T12:53:14;98996.34;;;23.80;55.52
65872;BME280;52653;50.080;21.992;2023-06-14T12:55:46;98995.25;;;24.07;55.09
65872;BME280;52653;50.080;21.992;2023-06-14T12:58:19;98993.69;;;24.34;54.01
65872;BME280;52653;50.080;21.992;2023-06-14T13:00:52;98997.95;;;24.66;53.06
65872;BME280;52653;50.080;21.992;2023-06-14T13:03:27;98993.24;;;25.00;52.36
65872;BME280;52653;50.080;21.992;2023-06-14T13:06:00;98992.23;;;25.22;51.80
65872;BME280;52653;50.080;21.992;2023-06-14T13:08:32;98990.71;;;25.36;50.11
65872;BME280;52653;50.080;21.992;2023-06-14T13:11:08;98991.73;;;25.09;47.43
65872;BME280;52653;50.080;21.992;2023-06-14T13:13:42;98992.48;;;24.75;48.84
65872;BME280;52653;50.080;21.992;2023-06-14T13:16:16;98989.27;;;24.68;49.63
65872;BME280;52653;50.080;21.992;2023-06-14T13:18:48;98988.27;;;24.86;50.71
65872;BME280;52653;50.080;21.992;2023-06-14T13:21:21;98986.74;;;25.09;51.03
65872;BME280;52653;50.080;21.992;2023-06-14T13:23:54;98988.44;;;25.02;49.20
65872;BME280;52653;50.080;21.992;2023-06-14T13:26:30;98990.61;;;24.81;48.97
65872;BME280;52653;50.080;21.992;2023-06-14T13:29:02;98988.10;;;24.63;49.29
65872;BME280;52653;50.080;21.992;2023-06-14T13:31:35;98986.14;;;24.50;49.52
65872;BME280;52653;50.080;21.992;2023-06-14T13:34:08;98989.34;;;24.43;49.43
65872;BME280;52653;50.080;21.992;2023-06-14T13:36:41;98989.01;;;24.34;49.29
65872;BME280;52653;50.080;21.992;2023-06-14T13:39:15;98987.95;;;24.39;49.20
65872;BME280;52653;50.080;21.992;2023-06-14T13:41:48;98986.13;;;24.48;48.79
65872;BME280;52653;50.080;21.992;2023-06-14T13:44:21;98988.48;;;24.45;48.31
65872;BME280;52653;50.080;21.992;2023-06-14T13:46:56;98988.54;;;24.25;49.15
65872;BME280;52653;50.080;21.992;2023-06-14T13:49:29;98990.99;;;24.20;49.79
65872;BME280;52653;50.080;21.992;2023-06-14T13:52:05;98994.77;;;24.23;50.47
65872;BME280;52653;50.080;21.992;2023-06-14T13:54:38;98994.80;;;24.25;50.81
65872;BME280;52653;50.080;21.992;2023-06-14T13:57:11;98995.40;;;24.16;51.26
65872;BME280;52653;50.080;21.992;2023-06-14T13:59:50;98993.61;;;24.00;51.74
65872;BME280;52653;50.080;21.992;2023-06-14T14:02:30;98991.72;;;23.90;52.19